createdAt,value
2023-05-20T00:02:10.850Z,100.00
2023-05-20T00:04:37.269Z,100.00
2023-05-20T00:07:04.238Z,100.00
2023-05-20T00:09:30.582Z,100.00
2023-05-20T00:11:56.911Z,100.00
2023-05-20T00:14:23.247Z,100.00
2023-05-20T00:16:50.704Z,100.00
2023-05-20T00:19:17.205Z,100.00
2023-05-20T00:21:43.774Z,100.00
2023-05-20T00:24:10.122Z,100.00
2023-05-20T00:26:39.606Z,100.00
2023-05-20T00:29:05.948Z,100.00
2023-05-20T00:31:32.309Z,100.00
2023-05-20T00:33:58.672Z,100.00
2023-05-20T00:36:24.987Z,100.00
2023-05-20T00:38:53.340Z,100.00
2023-05-20T00:41:19.747Z,100.00
2023-05-20T00:43:46.073Z,100.00
2023-05-20T00:46:12.780Z,100.00
2023-05-20T00:48:43.287Z,100.00
2023-05-20T00:51:10.770Z,100.00
2023-05-20T00:56:18.645Z,100.00
2023-05-20T00:58:47.165Z,100.00
2023-05-20T01:01:13.651Z,100.00
2023-05-20T01:03:40.202Z,100.00
2023-05-20T01:06:06.635Z,100.00
2023-05-20T01:08:34.177Z,100.00
2023-05-20T01:11:04.734Z,100.00
2023-05-20T01:13:35.022Z,100.00
2023-05-20T01:16:03.539Z,100.00
2023-05-20T01:18:32.385Z,100.00
2023-05-20T01:21:01.581Z,100.00
2023-05-20T01:23:32.572Z,100.00
2023-05-20T01:25:58.944Z,100.00
2023-05-20T01:28:27.066Z,100.00
2023-05-20T01:30:56.273Z,100.00
2023-05-20T01:33:24.421Z,100.00
2023-05-20T01:35:52.071Z,100.00
2023-05-20T01:38:19.283Z,100.00
2023-05-20T01:40:53.788Z,100.00
2023-05-20T01:43:21.040Z,100.00
2023-05-20T01:45:48.533Z,100.00
2023-05-20T01:48:14.914Z,100.00
2023-05-20T01:50:41.268Z,100.00
2023-05-20T01:53:10.708Z,100.00
2023-05-20T01:55:42.179Z,100.00
2023-05-20T01:58:08.536Z,100.00
2023-05-20T02:00:35.015Z,100.00
2023-05-20T02:03:03.494Z,100.00
2023-05-20T02:05:41.839Z,100.00
2023-05-20T02:08:08.357Z,100.00
2023-05-20T02:10:34.738Z,100.00
2023-05-20T02:13:01.112Z,100.00
2023-05-20T02:15:27.521Z,100.00
2023-05-20T02:17:53.946Z,100.00
2023-05-20T02:20:20.326Z,100.00
2023-05-20T02:22:46.782Z,100.00
2023-05-20T02:25:13.261Z,100.00
2023-05-20T02:27:40.695Z,100.00
2023-05-20T02:30:07.410Z,100.00
2023-05-20T02:32:40.046Z,100.00
2023-05-20T02:35:06.717Z,100.00
2023-05-20T02:37:34.503Z,100.00
2023-05-20T02:40:01.221Z,100.00
2023-05-20T02:42:27.577Z,100.00
2023-05-20T02:44:56.557Z,100.00
2023-05-20T02:47:23.033Z,100.00
2023-05-20T02:49:49.395Z,100.00
2023-05-20T02:52:16.541Z,100.00
2023-05-20T02:54:42.927Z,100.00
2023-05-20T02:57:09.291Z,100.00
2023-05-20T02:59:35.624Z,100.00
2023-05-20T03:02:02.063Z,100.00
2023-05-20T03:04:31.617Z,100.00
2023-05-20T03:06:58.195Z,100.00
2023-05-20T03:09:25.155Z,100.00
2023-05-20T03:11:51.546Z,100.00
2023-05-20T03:14:17.919Z,100.00
2023-05-20T03:16:44.279Z,100.00
2023-05-20T03:19:10.653Z,100.00
2023-05-20T03:21:39.079Z,100.00
2023-05-20T03:24:05.606Z,100.00
2023-05-20T03:26:33.907Z,100.00
2023-05-20T03:29:00.253Z,100.00
2023-05-20T03:31:27.374Z,100.00
2023-05-20T03:33:53.729Z,100.00
2023-05-20T03:36:20.077Z,100.00
2023-05-20T03:38:46.433Z,100.00
2023-05-20T03:41:16.822Z,100.00
2023-05-20T03:43:43.197Z,100.00
2023-05-20T03:46:18.691Z,100.00
2023-05-20T03:48:48.119Z,100.00
2023-05-20T03:51:14.472Z,100.00
2023-05-20T03:53:40.916Z,100.00
2023-05-20T03:56:12.288Z,100.00
2023-05-20T03:58:38.807Z,100.00
2023-05-20T04:01:05.445Z,100.00
2023-05-20T04:03:31.952Z,100.00
2023-05-20T04:05:59.443Z,100.00
2023-05-20T04:08:28.923Z,100.00
2023-05-20T04:10:55.796Z,100.00
2023-05-20T04:13:22.290Z,100.00
2023-05-20T04:15:53.172Z,100.00
2023-05-20T04:18:19.620Z,100.00
2023-05-20T04:20:46.486Z,100.00
2023-05-20T04:23:12.869Z,100.00
2023-05-20T04:25:41.208Z,100.00
2023-05-20T04:28:16.835Z,100.00
2023-05-20T04:30:45.091Z,100.00
2023-05-20T04:33:11.880Z,100.00
2023-05-20T04:35:41.512Z,100.00
2023-05-20T04:38:08.598Z,100.00
2023-05-20T04:40:34.952Z,100.00
2023-05-20T04:43:04.047Z,100.00
2023-05-20T04:45:30.471Z,100.00
2023-05-20T04:47:56.966Z,100.00
2023-05-20T04:50:25.372Z,100.00
2023-05-20T04:53:03.054Z,100.00
2023-05-20T04:55:30.789Z,100.00
2023-05-20T04:57:59.224Z,100.00
2023-05-20T05:00:35.662Z,100.00
2023-05-20T05:03:02.510Z,100.00
2023-05-20T05:05:28.901Z,100.00
2023-05-20T05:07:55.316Z,100.00
2023-05-20T05:10:23.353Z,100.00
2023-05-20T05:12:49.723Z,100.00
2023-05-20T05:15:16.167Z,100.00
2023-05-20T05:18:11.520Z,100.00
2023-05-20T05:20:37.939Z,100.00
2023-05-20T05:23:04.316Z,100.00
2023-05-20T05:25:30.855Z,100.00
2023-05-20T05:27:57.251Z,100.00
2023-05-20T05:30:23.661Z,100.00
2023-05-20T05:32:50.253Z,100.00
2023-05-20T05:35:17.725Z,100.00
2023-05-20T05:37:48.293Z,100.00
2023-05-20T05:40:15.733Z,100.00
2023-05-20T05:42:42.057Z,100.00
2023-05-20T05:45:08.841Z,100.00
2023-05-20T05:47:36.462Z,100.00
2023-05-20T05:50:03.029Z,100.00
2023-05-20T05:52:29.413Z,100.00
2023-05-20T05:54:59.992Z,100.00
2023-05-20T05:57:31.357Z,100.00
2023-05-20T06:00:01.912Z,100.00
2023-05-20T06:02:28.399Z,100.00
2023-05-20T06:04:54.831Z,100.00
2023-05-20T06:07:25.221Z,100.00
2023-05-20T06:09:51.590Z,100.00
2023-05-20T06:12:21.905Z,100.00
2023-05-20T06:14:48.813Z,100.00
2023-05-20T06:17:15.171Z,100.00
2023-05-20T06:19:41.567Z,100.00
2023-05-20T06:22:07.942Z,100.00
2023-05-20T06:24:34.510Z,100.00
2023-05-20T06:27:00.940Z,100.00
2023-05-20T06:29:29.080Z,100.00
2023-05-20T06:31:55.394Z,100.00
2023-05-20T06:34:21.750Z,100.00
2023-05-20T06:36:48.115Z,100.00
2023-05-20T06:39:14.449Z,100.00
2023-05-20T06:41:41.884Z,100.00
2023-05-20T06:44:08.283Z,100.00
2023-05-20T06:46:34.881Z,100.00
2023-05-20T06:49:01.280Z,100.00
2023-05-20T06:51:28.295Z,100.00
2023-05-20T06:53:54.694Z,100.00
2023-05-20T06:56:21.548Z,100.00
2023-05-20T06:58:47.910Z,100.00
2023-05-20T07:01:15.955Z,100.00
2023-05-20T07:03:51.880Z,100.00
2023-05-20T07:06:18.301Z,100.00
2023-05-20T07:08:44.801Z,100.00
2023-05-20T07:11:13.141Z,100.00
2023-05-20T07:13:39.544Z,100.00
2023-05-20T07:16:06.041Z,100.00
2023-05-20T07:18:32.440Z,100.00
2023-05-20T07:20:58.840Z,100.00
2023-05-20T07:23:25.209Z,100.00
2023-05-20T07:25:52.860Z,100.00
2023-05-20T07:28:20.481Z,100.00
2023-05-20T07:30:50.089Z,100.00
2023-05-20T07:33:17.577Z,100.00
2023-05-20T07:35:50.340Z,100.00
2023-05-20T07:38:16.753Z,100.00
2023-05-20T07:40:43.131Z,100.00
2023-05-20T07:43:09.492Z,100.00
2023-05-20T07:45:37.218Z,100.00
2023-05-20T07:48:04.415Z,100.00
2023-05-20T07:50:31.041Z,100.00
2023-05-20T07:52:57.395Z,100.00
2023-05-20T07:55:24.021Z,100.00
2023-05-20T07:57:50.626Z,100.00
2023-05-20T08:00:17.036Z,100.00
2023-05-20T08:02:43.496Z,100.00
2023-05-20T08:05:09.996Z,100.00
2023-05-20T08:07:36.403Z,100.00
2023-05-20T08:10:04.911Z,100.00
2023-05-20T08:12:31.301Z,100.00
2023-05-20T08:14:57.650Z,100.00
2023-05-20T08:17:26.141Z,100.00
2023-05-20T08:19:52.542Z,100.00
2023-05-20T08:22:18.895Z,100.00
2023-05-20T08:24:45.456Z,100.00
2023-05-20T08:27:11.811Z,100.00
2023-05-20T08:29:38.272Z,100.00
2023-05-20T08:32:04.864Z,100.00
2023-05-20T08:34:31.217Z,100.00
2023-05-20T08:36:57.826Z,100.00
2023-05-20T08:39:24.919Z,100.00
2023-05-20T08:41:51.323Z,100.00
2023-05-20T08:44:19.125Z,100.00
2023-05-20T08:46:46.008Z,100.00
2023-05-20T08:49:12.456Z,100.00
2023-05-20T08:51:39.529Z,100.00
2023-05-20T08:54:07.033Z,100.00
2023-05-20T08:56:33.894Z,100.00
2023-05-20T08:59:04.318Z,100.00
2023-05-20T09:01:30.842Z,100.00
2023-05-20T09:03:57.189Z,100.00
2023-05-20T09:06:24.158Z,100.00
2023-05-20T09:08:53.535Z,100.00
2023-05-20T09:11:21.761Z,100.00
2023-05-20T09:13:48.159Z,100.00
2023-05-20T09:16:14.704Z,100.00
2023-05-20T09:18:41.622Z,100.00
2023-05-20T09:21:10.120Z,100.00
2023-05-20T09:23:37.687Z,100.00
2023-05-20T09:26:04.258Z,100.00
2023-05-20T09:28:30.858Z,100.00
2023-05-20T09:31:01.486Z,100.00
2023-05-20T09:33:29.901Z,100.00
2023-05-20T09:36:03.491Z,100.00
2023-05-20T09:38:35.440Z,100.00
2023-05-20T09:41:09.596Z,100.00
2023-05-20T09:43:37.293Z,100.00
2023-05-20T09:46:04.462Z,100.00
2023-05-20T09:48:34.155Z,100.00
2023-05-20T09:51:01.779Z,100.00
2023-05-20T09:53:28.418Z,100.00
2023-05-20T09:55:55.268Z,100.00
2023-05-20T09:58:22.808Z,100.00
2023-05-20T10:00:49.369Z,100.00
2023-05-20T10:03:15.892Z,100.00
2023-05-20T10:05:45.387Z,95.95
2023-05-20T10:08:16.077Z,99.17
2023-05-20T10:10:44.891Z,100.00
2023-05-20T10:13:28.730Z,98.98
2023-05-20T10:16:13.299Z,99.70
2023-05-20T10:18:45.683Z,100.00
2023-05-20T10:21:16.044Z,96.76
2023-05-20T10:23:42.492Z,97.50
2023-05-20T10:26:08.926Z,99.81
2023-05-20T10:28:38.861Z,100.00
2023-05-20T10:31:19.098Z,98.72
2023-05-20T10:33:46.071Z,100.00
2023-05-20T10:36:30.620Z,100.00
2023-05-20T10:38:58.220Z,100.00
2023-05-20T10:41:26.693Z,99.45
2023-05-20T10:44:03.470Z,100.00
2023-05-20T10:46:41.863Z,100.00
2023-05-20T10:49:22.468Z,100.00
2023-05-20T10:51:51.532Z,100.00
2023-05-20T10:54:18.010Z,100.00
2023-05-20T10:56:55.657Z,100.00
2023-05-20T10:59:22.313Z,100.00
2023-05-20T11:01:49.030Z,100.00
2023-05-20T11:04:16.626Z,100.00
2023-05-20T11:06:50.582Z,100.00
2023-05-20T11:09:17.134Z,100.00
2023-05-20T11:11:43.587Z,100.00
2023-05-20T11:14:13.618Z,99.01
2023-05-20T11:16:42.421Z,99.66
2023-05-20T11:19:09.495Z,97.02
2023-05-20T11:21:42.554Z,97.88
2023-05-20T11:24:08.887Z,98.64
2023-05-20T11:26:35.939Z,100.00
2023-05-20T11:29:02.450Z,100.00
2023-05-20T11:31:28.941Z,100.00
2023-05-20T11:33:55.318Z,100.00
2023-05-20T11:36:27.937Z,97.80
2023-05-20T11:38:55.404Z,90.09
2023-05-20T11:41:28.924Z,90.32
2023-05-20T11:43:59.202Z,91.81
2023-05-20T11:46:26.144Z,90.62
2023-05-20T11:48:56.404Z,92.53
2023-05-20T11:51:24.890Z,95.47
2023-05-20T11:53:51.281Z,93.56
2023-05-20T11:56:21.517Z,92.96
2023-05-20T11:58:48.026Z,91.62
2023-05-20T12:03:47.457Z,92.61
2023-05-20T12:06:14.986Z,94.02
2023-05-20T12:08:41.321Z,93.62
2023-05-20T12:11:07.724Z,89.64
2023-05-20T12:13:35.402Z,92.98
2023-05-20T12:16:02.349Z,91.23
2023-05-20T12:18:28.841Z,90.84
2023-05-20T12:20:56.263Z,92.55
2023-05-20T12:23:22.692Z,91.03
2023-05-20T12:25:50.031Z,92.21
2023-05-20T12:28:17.666Z,94.25
2023-05-20T12:30:44.164Z,91.00
2023-05-20T12:33:10.532Z,89.29
2023-05-20T12:35:38.010Z,89.83
2023-05-20T12:38:05.035Z,90.41
2023-05-20T12:40:31.422Z,93.62
2023-05-20T12:42:59.026Z,89.95
2023-05-20T12:45:25.534Z,92.93
2023-05-20T12:47:51.907Z,86.65
2023-05-20T12:50:18.386Z,90.12
2023-05-20T12:52:44.790Z,90.69
2023-05-20T12:55:13.832Z,92.87
2023-05-20T12:57:40.859Z,88.96
2023-05-20T13:00:08.336Z,91.45
2023-05-20T13:02:34.825Z,92.10
2023-05-20T13:05:01.340Z,89.59
2023-05-20T13:07:34.214Z,89.56
2023-05-20T13:10:00.594Z,85.94
2023-05-20T13:12:26.964Z,86.46
2023-05-20T13:14:53.491Z,88.29
2023-05-20T13:17:19.967Z,91.58
2023-05-20T13:19:46.390Z,85.94
2023-05-20T13:22:12.748Z,83.83
2023-05-20T13:24:39.123Z,82.36
2023-05-20T13:27:05.654Z,82.59
2023-05-20T13:29:31.993Z,85.16
2023-05-20T13:32:00.313Z,84.32
2023-05-20T13:34:28.412Z,81.87
2023-05-20T13:36:54.889Z,83.60
2023-05-20T13:39:28.472Z,88.65
2023-05-20T13:41:55.295Z,90.04
2023-05-20T13:44:21.834Z,88.69
2023-05-20T13:46:48.256Z,85.27
2023-05-20T13:49:14.636Z,89.97
2023-05-20T13:51:42.150Z,85.75
2023-05-20T13:54:08.505Z,88.57
2023-05-20T13:56:35.040Z,85.43
2023-05-20T13:59:01.385Z,86.75
2023-05-20T14:01:28.399Z,84.56
2023-05-20T14:03:55.984Z,87.56
2023-05-20T14:06:22.794Z,86.57
2023-05-20T14:08:56.624Z,85.72
2023-05-20T14:11:25.022Z,83.66
2023-05-20T14:13:52.435Z,82.44
2023-05-20T14:16:20.856Z,83.09
2023-05-20T14:18:47.234Z,81.79
2023-05-20T14:21:13.648Z,84.74
2023-05-20T14:23:44.319Z,84.99
2023-05-20T14:26:11.246Z,85.14
2023-05-20T14:28:37.793Z,83.73
2023-05-20T14:31:11.332Z,83.77
2023-05-20T14:33:37.719Z,80.53
2023-05-20T14:36:04.246Z,80.23
2023-05-20T14:38:30.958Z,80.85
2023-05-20T14:40:58.493Z,81.03
2023-05-20T14:43:24.885Z,79.05
2023-05-20T14:45:52.154Z,79.05
2023-05-20T14:48:25.598Z,80.10
2023-05-20T14:50:51.946Z,79.48
2023-05-20T14:53:19.395Z,79.71
2023-05-20T14:55:49.856Z,77.70
2023-05-20T14:58:17.291Z,78.07
2023-05-20T15:00:43.675Z,78.85
2023-05-20T15:03:10.236Z,75.99
2023-05-20T15:05:36.731Z,78.80
2023-05-20T15:08:03.779Z,77.73
2023-05-20T15:10:32.118Z,77.52
2023-05-20T15:12:58.636Z,74.69
2023-05-20T15:15:25.261Z,75.99
2023-05-20T15:17:51.802Z,76.10
2023-05-20T15:20:18.420Z,76.80
2023-05-20T15:22:47.825Z,71.88
2023-05-20T15:25:14.405Z,72.09
2023-05-20T15:27:50.924Z,68.41
2023-05-20T15:30:17.326Z,67.30
2023-05-20T15:32:43.847Z,67.64
2023-05-20T15:35:12.370Z,67.10
2023-05-20T15:37:38.796Z,66.39
2023-05-20T15:40:05.450Z,66.28
2023-05-20T15:42:37.837Z,66.37
2023-05-20T15:45:04.351Z,66.67
2023-05-20T15:47:31.809Z,67.60
2023-05-20T15:49:58.178Z,66.73
2023-05-20T15:52:24.628Z,67.62
2023-05-20T15:54:52.074Z,65.65
2023-05-20T15:57:18.569Z,64.60
2023-05-20T15:59:46.999Z,64.24
2023-05-20T16:02:14.503Z,65.83
2023-05-20T16:04:41.276Z,65.67
2023-05-20T16:07:09.788Z,63.30
2023-05-20T16:09:37.167Z,63.59
2023-05-20T16:12:06.082Z,64.96
2023-05-20T16:14:32.444Z,64.14
2023-05-20T16:16:58.849Z,57.48
2023-05-20T16:19:25.220Z,56.22
2023-05-20T16:21:51.606Z,56.02
2023-05-20T16:24:18.007Z,57.61
2023-05-20T16:26:45.595Z,55.03
2023-05-20T16:29:13.378Z,54.71
2023-05-20T16:31:41.473Z,54.99
2023-05-20T16:34:09.583Z,55.51
2023-05-20T16:36:39.344Z,55.19
2023-05-20T16:39:06.461Z,57.41
2023-05-20T16:46:54.170Z,55.43
2023-05-20T16:51:56.954Z,55.49
2023-05-20T16:54:23.475Z,55.83
2023-05-20T16:56:54.900Z,55.41
2023-05-20T16:59:21.353Z,56.70
2023-05-20T17:01:48.772Z,57.88
2023-05-20T17:04:15.150Z,57.39
2023-05-20T17:06:44.587Z,56.90
2023-05-20T17:09:29.522Z,57.10
2023-05-20T17:11:55.963Z,57.11
2023-05-20T17:14:22.356Z,56.54
2023-05-20T17:16:48.756Z,57.65
2023-05-20T17:19:17.237Z,58.52
2023-05-20T17:21:52.816Z,57.89
2023-05-20T17:24:20.480Z,58.88
2023-05-20T17:26:48.873Z,59.23
2023-05-20T17:29:22.446Z,59.36
2023-05-20T17:31:49.801Z,59.37
2023-05-20T17:34:17.250Z,60.20
2023-05-20T17:36:43.632Z,59.42
2023-05-20T17:39:19.204Z,59.85
2023-05-20T17:41:53.714Z,60.21
2023-05-20T17:44:21.074Z,60.50
2023-05-20T17:46:48.666Z,62.64
2023-05-20T17:49:15.347Z,62.55
2023-05-20T17:51:42.297Z,59.51
2023-05-20T17:54:08.684Z,59.54
2023-05-20T17:56:38.351Z,60.10
2023-05-20T17:59:04.758Z,60.67
2023-05-20T18:01:32.291Z,62.12
2023-05-20T18:04:03.660Z,62.83
2023-05-20T18:06:34.602Z,63.13
2023-05-20T18:09:05.946Z,63.72
2023-05-20T18:11:33.039Z,64.53
2023-05-20T18:13:59.862Z,64.71
2023-05-20T18:16:27.030Z,65.03
2023-05-20T18:18:53.793Z,66.08
2023-05-20T18:21:20.811Z,66.63
2023-05-20T18:23:47.455Z,67.62
2023-05-20T18:26:13.992Z,67.94
2023-05-20T18:28:40.731Z,68.88
2023-05-20T18:31:07.294Z,69.69
2023-05-20T18:33:34.005Z,69.28
2023-05-20T18:36:00.554Z,69.84
2023-05-20T18:38:27.212Z,71.58
2023-05-20T18:40:53.652Z,72.80
2023-05-20T18:43:20.051Z,72.85
2023-05-20T18:45:52.492Z,75.41
2023-05-20T18:48:32.417Z,75.42
2023-05-20T18:50:58.790Z,76.33
2023-05-20T18:53:25.379Z,76.59
2023-05-20T18:55:51.765Z,78.54
2023-05-20T18:58:18.268Z,80.16
2023-05-20T19:00:52.559Z,80.12
2023-05-20T19:03:19.012Z,81.87
2023-05-20T19:05:59.539Z,82.17
2023-05-20T19:08:27.501Z,81.51
2023-05-20T19:10:53.909Z,82.78
2023-05-20T19:13:20.548Z,81.08
2023-05-20T19:15:47.024Z,81.39
2023-05-20T19:18:14.653Z,80.22
2023-05-20T19:20:43.115Z,80.85
2023-05-20T19:23:09.449Z,81.80
2023-05-20T19:25:36.044Z,82.34
2023-05-20T19:28:02.668Z,82.56
2023-05-20T19:30:29.012Z,83.49
2023-05-20T19:33:03.629Z,84.52
2023-05-20T19:35:30.125Z,84.84
2023-05-20T19:38:04.971Z,85.60
2023-05-20T19:40:36.626Z,91.45
2023-05-20T19:43:12.185Z,96.66
2023-05-20T19:45:41.761Z,95.38
2023-05-20T19:48:10.740Z,96.42
2023-05-20T19:50:37.501Z,96.04
2023-05-20T19:53:15.135Z,94.98
2023-05-20T19:55:42.589Z,95.41
2023-05-20T19:58:17.845Z,99.13
2023-05-20T20:00:48.388Z,99.84
2023-05-20T20:03:29.107Z,98.83
2023-05-20T20:05:58.647Z,99.45
2023-05-20T20:08:25.015Z,100.00
2023-05-20T20:10:51.367Z,100.00
2023-05-20T20:13:26.913Z,100.00
2023-05-20T20:16:11.753Z,100.00
2023-05-20T20:18:47.624Z,100.00
2023-05-20T20:21:30.366Z,100.00
2023-05-20T20:24:03.880Z,100.00
2023-05-20T20:26:34.621Z,100.00
2023-05-20T20:29:04.084Z,100.00
2023-05-20T20:31:36.355Z,100.00
2023-05-20T20:34:02.857Z,100.00
2023-05-20T20:36:39.586Z,100.00
2023-05-20T20:39:26.226Z,100.00
2023-05-20T20:41:54.550Z,100.00
2023-05-20T20:44:21.065Z,100.00
2023-05-20T20:46:50.842Z,100.00
2023-05-20T20:49:18.773Z,100.00
2023-05-20T20:51:45.889Z,100.00
2023-05-20T20:54:14.236Z,100.00
2023-05-20T20:56:41.459Z,100.00
2023-05-20T20:59:10.241Z,100.00
2023-05-20T21:01:37.749Z,100.00
2023-05-20T21:04:08.901Z,100.00
2023-05-20T21:06:37.700Z,100.00
2023-05-20T21:09:04.180Z,100.00
2023-05-20T21:11:30.540Z,100.00
2023-05-20T21:13:56.907Z,100.00
2023-05-20T21:16:28.313Z,100.00
2023-05-20T21:18:54.711Z,100.00
2023-05-20T21:21:21.608Z,100.00
2023-05-20T21:23:52.864Z,100.00
2023-05-20T21:26:21.213Z,100.00
2023-05-20T21:28:47.790Z,100.00
2023-05-20T21:31:14.252Z,100.00
2023-05-20T21:33:40.672Z,100.00
2023-05-20T21:36:07.067Z,100.00
2023-05-20T21:38:33.455Z,100.00
2023-05-20T21:41:01.228Z,100.00
2023-05-20T21:43:27.699Z,100.00
2023-05-20T21:45:54.141Z,100.00
2023-05-20T21:48:27.608Z,100.00
2023-05-20T21:50:53.978Z,100.00
2023-05-20T21:53:20.379Z,100.00
2023-05-20T21:55:57.090Z,100.00
2023-05-20T21:58:23.445Z,100.00
2023-05-20T22:00:49.802Z,100.00
2023-05-20T22:03:16.344Z,100.00
2023-05-20T22:05:46.363Z,100.00
2023-05-20T22:08:13.923Z,100.00
2023-05-20T22:10:40.274Z,100.00
2023-05-20T22:13:06.785Z,100.00
2023-05-20T22:15:33.347Z,100.00
2023-05-20T22:17:59.897Z,100.00
2023-05-20T22:20:28.626Z,100.00
2023-05-20T22:22:54.972Z,100.00
2023-05-20T22:25:21.462Z,100.00
2023-05-20T22:27:48.192Z,100.00
2023-05-20T22:30:14.630Z,100.00
2023-05-20T22:32:44.207Z,100.00
2023-05-20T22:35:12.985Z,100.00
2023-05-20T22:37:39.350Z,100.00
